NFSM7: N Fork Spring River nr Purcell, MO

                                SHEF ID:       NFSM7     N Fork Spring River nr Purcell, MO
STATION TYPE:

STAGE RIV-FLOW
ft cfs
Ccp-Rev Ccp-Rev
(America/Chicago)
04/26 00:00 4.88 476
04/26 01:00 4.87 473
04/26 02:00 4.88 476
04/26 03:00 4.87 473
04/26 04:00 4.85 466
04/26 05:00 4.84 463
04/26 06:00 4.83 460
04/26 07:00 4.81 453
04/26 08:00 4.78 444
04/26 09:00 4.76 437
04/26 10:00 4.75 434
04/26 11:00 4.72 424
04/26 12:00 4.70 418
04/26 13:00 4.67 409
04/26 14:00 4.65 403
04/26 15:00 4.62 394
04/26 16:00 4.60 388
04/26 17:00 4.57 379
04/26 18:00 4.54 370
04/26 19:00 4.56 376
04/26 20:00 4.54 370
04/26 21:00 4.52 364
04/26 22:00 4.50 358
04/26 23:00 ---- ----
Data processed at Mon 27Apr2026 04:45 GMT

NOTICE: If you are parsing this page

Please convert to using our Data API. Starting early 2026 we will be migrating to: https://water.usace.army.mil with modern pages rendered in JavaScript. When this migration completes you will no longer be able to scrape this page! CWMSDataAPI (CDA)

Timeseries IDs (TSIDs)

TSIDs used from left to right in the data table
PURS.Stage.Inst.1Hour.0.Ccp-Rev
PURS.Flow.Inst.1Hour.0.Ccp-Rev

                            

All information presented herein is the property of the government of the United States of America and may be revised or deleted at any time without prior notice. Dissemination of this information without the expressed written consent of the Public Affairs Office, Tulsa District U.S. Army Corps of Engineers is strictly prohibited. These data are gathered electronically and, as presented, have NOT undergone any form of quality control. These data are NOT guaranteed to be valid or correct.